createdAt,value
2019-04-04T00:01:06.309Z,99754.52
2019-04-04T00:03:34.633Z,99754.75
2019-04-04T00:06:02.909Z,99754.75
2019-04-04T00:08:32.177Z,99767.44
2019-04-04T00:11:00.529Z,99758.88
2019-04-04T00:13:28.915Z,99751.39
2019-04-04T00:16:00.340Z,99748.63
2019-04-04T00:18:28.644Z,99741.39
2019-04-04T00:20:56.932Z,99731.48
2019-04-04T00:23:25.243Z,99732.91
2019-04-04T00:25:53.517Z,99731.88
2019-04-04T00:28:21.908Z,99720.84
2019-04-04T00:30:50.199Z,99709.48
2019-04-04T00:33:18.488Z,99693.86
2019-04-04T00:35:46.900Z,99683.52
2019-04-04T00:38:15.219Z,99664.17
2019-04-04T00:40:43.536Z,99655.91
2019-04-04T00:43:11.822Z,99648.31
2019-04-04T00:45:40.129Z,99630.45
2019-04-04T00:48:08.406Z,99627.34
2019-04-04T00:50:37.329Z,99627.91
2019-04-04T00:53:05.693Z,99627.34
2019-04-04T00:55:34.005Z,99640.30
2019-04-04T00:58:02.690Z,99678.92
2019-04-04T01:00:31.157Z,99696.50
2019-04-04T01:02:59.454Z,99677.38
2019-04-04T01:05:27.732Z,99657.63
2019-04-04T01:07:56.042Z,99651.67
2019-04-04T01:10:24.333Z,99634.70
2019-04-04T01:12:52.784Z,99630.08
2019-04-04T01:15:21.079Z,99624.64
2019-04-04T01:17:49.413Z,99625.75
2019-04-04T01:20:20.297Z,99640.83
2019-04-04T01:22:48.105Z,99637.59
2019-04-04T01:25:16.416Z,99636.53
2019-04-04T01:27:45.610Z,99633.92
2019-04-04T01:30:13.911Z,99629.06
2019-04-04T01:32:42.195Z,99640.95
2019-04-04T01:35:10.621Z,99653.91
2019-04-04T01:37:38.898Z,99658.98
2019-04-04T01:40:07.184Z,99636.20
2019-04-04T01:42:37.888Z,99637.72
2019-04-04T01:45:07.086Z,99655.58
2019-04-04T01:47:35.395Z,99656.69
2019-04-04T01:50:03.823Z,99646.67
2019-04-04T01:52:32.100Z,99639.31
2019-04-04T01:55:03.027Z,99633.34
2019-04-04T01:57:30.434Z,99617.11
2019-04-04T01:59:58.766Z,99614.66
2019-04-04T02:02:27.414Z,99610.13
2019-04-04T02:04:57.443Z,99628.81
2019-04-04T02:07:27.848Z,99640.73
2019-04-04T02:09:56.523Z,99645.19
2019-04-04T02:12:24.838Z,99642.08
2019-04-04T02:14:53.117Z,99648.11
2019-04-04T02:17:22.310Z,99631.44
2019-04-04T02:19:51.179Z,99625.58
2019-04-04T02:22:19.473Z,99628.50
2019-04-04T02:24:47.783Z,99626.44
2019-04-04T02:27:18.832Z,99627.87
2019-04-04T02:29:47.146Z,99618.42
2019-04-04T02:32:17.070Z,99602.32
2019-04-04T02:34:45.485Z,99592.02
2019-04-04T02:37:13.774Z,99605.02
2019-04-04T02:39:42.422Z,99589.23
2019-04-04T02:42:10.749Z,99580.90
2019-04-04T02:44:39.058Z,99595.52
2019-04-04T02:47:07.327Z,99608.19
2019-04-04T02:49:35.616Z,99600.66
2019-04-04T02:52:03.921Z,99605.03
2019-04-04T02:54:32.275Z,99599.39
2019-04-04T02:57:00.562Z,99610.02
2019-04-04T02:59:28.872Z,99620.94
2019-04-04T03:01:57.159Z,99628.47
2019-04-04T03:04:25.539Z,99624.03
2019-04-04T03:06:57.381Z,99622.20
2019-04-04T03:09:23.862Z,99623.16
2019-04-04T03:11:54.030Z,99620.75
2019-04-04T03:14:22.292Z,99615.67
2019-04-04T03:16:50.883Z,99615.46
2019-04-04T03:19:19.155Z,99605.28
2019-04-04T03:21:47.517Z,99599.19
2019-04-04T03:24:15.874Z,99587.70
2019-04-04T03:26:44.185Z,99595.05
2019-04-04T03:29:12.467Z,99595.68
2019-04-04T03:31:40.872Z,99586.32
2019-04-04T03:34:12.180Z,99591.53
2019-04-04T03:36:39.784Z,99576.33
2019-04-04T03:39:08.446Z,99563.45
2019-04-04T03:41:36.723Z,99572.50
2019-04-04T03:44:05.108Z,99581.21
2019-04-04T03:46:38.218Z,99575.89
2019-04-04T03:49:03.491Z,99579.19
2019-04-04T03:51:32.182Z,99579.83
2019-04-04T03:54:02.719Z,99579.89
2019-04-04T03:56:38.835Z,99597.15
2019-04-04T03:59:01.246Z,99602.07
2019-04-04T04:01:29.614Z,99612.66
2019-04-04T04:03:57.960Z,99619.46
2019-04-04T04:06:27.194Z,99613.36
2019-04-04T04:08:55.595Z,99620.72
2019-04-04T04:11:23.876Z,99604.91
2019-04-04T04:13:52.188Z,99605.86
2019-04-04T04:16:21.343Z,99611.38
2019-04-04T04:18:54.001Z,99609.84
2019-04-04T04:21:19.672Z,99601.55
2019-04-04T04:23:49.949Z,99598.67
2019-04-04T04:26:18.407Z,99599.52
2019-04-04T04:28:46.692Z,99620.89
2019-04-04T04:31:15.567Z,99610.98
2019-04-04T04:33:44.882Z,99629.34
2019-04-04T04:36:15.645Z,99622.74
2019-04-04T04:38:43.297Z,99614.30
2019-04-04T04:41:12.626Z,99604.44
2019-04-04T04:43:41.813Z,99611.01
2019-04-04T04:46:10.111Z,99624.68
2019-04-04T04:48:38.387Z,99624.68
2019-04-04T04:51:06.730Z,99624.74
2019-04-04T04:53:35.018Z,99619.14
2019-04-04T04:56:03.461Z,99626.71
2019-04-04T04:58:31.738Z,99636.25
2019-04-04T05:01:00.049Z,99636.25
2019-04-04T05:03:28.461Z,99607.03
2019-04-04T05:06:00.433Z,99607.03
2019-04-04T05:08:26.815Z,99606.05
2019-04-04T05:10:55.814Z,99606.05
2019-04-04T05:13:26.117Z,99609.31
2019-04-04T05:15:54.482Z,99612.59
2019-04-04T05:18:23.457Z,99612.59
2019-04-04T05:20:51.752Z,99603.33
2019-04-04T05:23:20.046Z,99603.55
2019-04-04T05:25:53.696Z,99608.45
2019-04-04T05:28:18.668Z,99611.15
2019-04-04T05:30:47.788Z,99592.62
2019-04-04T05:33:16.313Z,99591.03
2019-04-04T05:35:45.312Z,99608.52
2019-04-04T05:38:13.589Z,99610.33
2019-04-04T05:40:41.923Z,99610.33
2019-04-04T05:43:10.223Z,99611.62
2019-04-04T05:45:38.495Z,99610.27
2019-04-04T05:48:06.814Z,99605.70
2019-04-04T05:50:35.124Z,99605.70
2019-04-04T05:53:04.195Z,99612.22
2019-04-04T05:55:33.219Z,99612.22
2019-04-04T05:58:02.113Z,99612.84
2019-04-04T06:00:30.433Z,99612.16
2019-04-04T06:02:58.768Z,99609.41
2019-04-04T06:05:27.816Z,99598.37
2019-04-04T06:07:56.331Z,99601.41
2019-04-04T06:10:24.621Z,99628.84
2019-04-04T06:12:56.266Z,99628.84
2019-04-04T06:15:25.622Z,99638.45
2019-04-04T06:17:53.983Z,99626.09
2019-04-04T06:20:23.165Z,99628.66
2019-04-04T06:22:52.017Z,99633.60
2019-04-04T06:25:20.888Z,99646.88
2019-04-04T06:27:49.183Z,99640.86
2019-04-04T06:30:18.175Z,99643.48
2019-04-04T06:32:47.573Z,99648.75
2019-04-04T06:35:16.172Z,99651.94
2019-04-04T06:37:46.223Z,99661.61
2019-04-04T06:40:16.288Z,99649.56
2019-04-04T06:42:44.742Z,99649.56
2019-04-04T06:45:15.244Z,99642.70
2019-04-04T06:47:43.114Z,99630.20
2019-04-04T06:50:11.418Z,99639.00
2019-04-04T06:52:39.729Z,99646.45
2019-04-04T06:55:08.618Z,99643.16
2019-04-04T06:57:37.506Z,99642.53
2019-04-04T07:00:09.067Z,99638.89
2019-04-04T07:02:37.444Z,99644.00
2019-04-04T07:05:07.134Z,99656.96
2019-04-04T07:07:35.618Z,99654.20
2019-04-04T07:10:05.569Z,99645.03
2019-04-04T07:12:33.858Z,99636.63
2019-04-04T07:15:02.160Z,99618.49
2019-04-04T07:17:30.502Z,99609.56
2019-04-04T07:19:58.822Z,99617.89
2019-04-04T07:22:29.374Z,99622.28
2019-04-04T07:24:57.682Z,99636.81
2019-04-04T07:27:25.969Z,99645.92
2019-04-04T07:29:56.898Z,99638.09
2019-04-04T07:32:25.686Z,99637.46
2019-04-04T07:34:53.972Z,99645.16
2019-04-04T07:37:22.767Z,99657.46
2019-04-04T07:39:51.128Z,99663.56
2019-04-04T07:42:19.440Z,99675.05
2019-04-04T07:44:50.756Z,99680.69
2019-04-04T07:47:19.045Z,99686.64
2019-04-04T07:49:47.367Z,99695.76
2019-04-04T07:52:17.210Z,99697.64
2019-04-04T07:54:45.836Z,99690.63
2019-04-04T07:57:14.142Z,99697.89
2019-04-04T07:59:42.428Z,99701.22
2019-04-04T08:02:10.815Z,99699.94
2019-04-04T08:04:39.135Z,99704.22
2019-04-04T08:07:07.411Z,99710.70
2019-04-04T08:09:35.730Z,99709.61
2019-04-04T08:12:04.090Z,99713.02
2019-04-04T08:14:32.816Z,99718.66
2019-04-04T08:17:01.105Z,99726.67
2019-04-04T08:19:29.470Z,99732.84
2019-04-04T08:21:57.844Z,99736.26
2019-04-04T08:24:26.202Z,99739.20
2019-04-04T08:26:54.556Z,99738.89
2019-04-04T08:29:22.914Z,99737.72
2019-04-04T08:31:51.231Z,99742.80
2019-04-04T08:34:19.595Z,99747.59
2019-04-04T08:36:47.917Z,99745.92
2019-04-04T08:39:16.202Z,99753.13
2019-04-04T08:41:44.536Z,99758.14
2019-04-04T08:44:12.862Z,99762.92
2019-04-04T08:46:41.217Z,99767.13
2019-04-04T08:49:09.527Z,99765.71
2019-04-04T08:51:37.812Z,99765.04
2019-04-04T08:54:06.120Z,99766.61
2019-04-04T08:56:34.401Z,99774.31
2019-04-04T08:59:02.724Z,99772.42
2019-04-04T09:01:31.032Z,99771.86
2019-04-04T09:03:59.318Z,99769.98
2019-04-04T09:06:27.629Z,99777.19
2019-04-04T09:08:55.911Z,99775.77
2019-04-04T09:11:24.245Z,99778.64
2019-04-04T09:13:53.872Z,99780.77
2019-04-04T09:16:22.177Z,99784.36
2019-04-04T09:18:50.489Z,99780.52
2019-04-04T09:21:19.339Z,99787.20
2019-04-04T09:23:48.322Z,99794.44
2019-04-04T09:26:16.636Z,99798.23
2019-04-04T09:28:44.917Z,99801.97
2019-04-04T09:31:13.233Z,99812.37
2019-04-04T09:33:41.610Z,99807.22
2019-04-04T09:36:10.659Z,99817.69
2019-04-04T09:38:39.033Z,99807.40
2019-04-04T09:41:07.488Z,99811.70
2019-04-04T09:43:35.781Z,99817.02
2019-04-04T09:46:04.078Z,99817.42
2019-04-04T09:48:33.149Z,99819.27
2019-04-04T09:51:01.431Z,99816.56
2019-04-04T09:53:30.035Z,99820.89
2019-04-04T09:56:01.039Z,99808.69
2019-04-04T09:58:29.343Z,99802.13
2019-04-04T10:00:57.735Z,99792.36
2019-04-04T10:03:26.045Z,99794.45
2019-04-04T10:05:54.398Z,99792.50
2019-04-04T10:08:23.688Z,99782.98
2019-04-04T10:10:52.378Z,99776.16
2019-04-04T10:13:20.653Z,99781.23
2019-04-04T10:15:48.962Z,99788.69
2019-04-04T10:18:17.265Z,99791.31
2019-04-04T10:20:45.567Z,99808.54
2019-04-04T10:23:13.893Z,99808.86
2019-04-04T10:25:42.763Z,99797.21
2019-04-04T10:28:11.442Z,99791.49
2019-04-04T10:30:39.721Z,99799.20
2019-04-04T10:33:08.029Z,99794.58
2019-04-04T10:35:36.318Z,99798.55
2019-04-04T10:38:04.815Z,99789.92
2019-04-04T10:40:33.093Z,99785.23
2019-04-04T10:43:01.372Z,99787.78
2019-04-04T10:45:29.669Z,99787.63
2019-04-04T10:47:57.963Z,99789.93
2019-04-04T10:50:26.338Z,99799.77
2019-04-04T10:52:54.627Z,99803.74
2019-04-04T10:55:22.928Z,99808.75
2019-04-04T10:57:51.356Z,99800.48
2019-04-04T11:00:19.644Z,99804.14
2019-04-04T11:02:47.930Z,99806.77
2019-04-04T11:05:16.230Z,99813.52
2019-04-04T11:07:44.533Z,99814.01
2019-04-04T11:10:12.807Z,99815.49
2019-04-04T11:12:41.108Z,99814.55
2019-04-04T11:15:09.388Z,99822.50
2019-04-04T11:17:37.999Z,99813.75
2019-04-04T11:20:06.867Z,99824.23
2019-04-04T11:22:35.171Z,99828.29
2019-04-04T11:25:03.486Z,99837.53
2019-04-04T11:27:31.772Z,99827.27
2019-04-04T11:30:00.255Z,99817.02
2019-04-04T11:32:28.670Z,99818.37
2019-04-04T11:34:56.958Z,99815.18
2019-04-04T11:37:25.260Z,99822.75
2019-04-04T11:39:54.985Z,99827.83
2019-04-04T11:42:23.614Z,99831.31
2019-04-04T11:44:51.884Z,99840.45
2019-04-04T11:47:20.232Z,99835.29
2019-04-04T11:49:48.500Z,99836.47
2019-04-04T11:52:16.779Z,99838.39
2019-04-04T11:55:01.291Z,99846.42
2019-04-04T11:57:29.646Z,99839.83
2019-04-04T11:59:58.632Z,99837.59
2019-04-04T12:02:28.281Z,99837.59
2019-04-04T12:04:57.952Z,99835.20
2019-04-04T12:07:26.340Z,99834.64
2019-04-04T12:10:06.726Z,99838.08
2019-04-04T12:12:24.775Z,99830.27
2019-04-04T12:14:53.049Z,99827.08
2019-04-04T12:17:21.456Z,99819.13
2019-04-04T12:19:49.728Z,99806.84
2019-04-04T12:22:18.010Z,99808.73
2019-04-04T12:24:46.336Z,99815.97
2019-04-04T12:27:14.598Z,99827.16
2019-04-04T12:29:43.002Z,99835.81
2019-04-04T12:32:11.287Z,99840.68
2019-04-04T12:34:39.579Z,99829.70
2019-04-04T12:37:07.885Z,99824.91
2019-04-04T12:39:36.187Z,99824.02
2019-04-04T12:42:04.492Z,99826.55
2019-04-04T12:44:32.865Z,99826.72
2019-04-04T12:47:01.166Z,99827.34
2019-04-04T12:49:29.749Z,99831.80
2019-04-04T12:51:58.163Z,99841.05
2019-04-04T12:54:26.443Z,99843.59
2019-04-04T12:56:54.713Z,99847.33
2019-04-04T12:59:23.026Z,99849.87
2019-04-04T13:01:51.319Z,99846.22
2019-04-04T13:04:30.652Z,99849.87
2019-04-04T13:06:49.683Z,99842.95
2019-04-04T13:09:18.133Z,99846.78
2019-04-04T13:11:46.454Z,99851.17
2019-04-04T13:14:14.766Z,99843.35
2019-04-04T13:16:43.060Z,99839.63
2019-04-04T13:19:11.472Z,99837.66
2019-04-04T13:21:40.948Z,99841.54
2019-04-04T13:24:09.228Z,99851.56
2019-04-04T13:26:37.529Z,99860.33
2019-04-04T13:29:05.809Z,99864.38
2019-04-04T13:31:34.128Z,99877.90
2019-04-04T13:34:02.402Z,99878.52
2019-04-04T13:36:30.719Z,99877.23
2019-04-04T13:38:58.997Z,99889.89
2019-04-04T13:41:27.308Z,99885.84
2019-04-04T13:43:56.153Z,99894.90
2019-04-04T13:46:25.915Z,99888.71
2019-04-04T13:48:55.209Z,99885.44
2019-04-04T13:51:25.519Z,99882.48
2019-04-04T13:53:53.516Z,99873.59
2019-04-04T13:56:21.796Z,99864.84
2019-04-04T13:58:50.091Z,99856.00
2019-04-04T14:01:18.365Z,99858.25
2019-04-04T14:03:46.674Z,99848.55
2019-04-04T14:06:14.978Z,99850.59
2019-04-04T14:08:45.708Z,99840.36
2019-04-04T14:11:13.274Z,99843.63
2019-04-04T14:13:41.567Z,99849.49
2019-04-04T14:16:09.857Z,99850.76
2019-04-04T14:18:40.087Z,99851.48
2019-04-04T14:21:08.262Z,99868.73
2019-04-04T14:23:36.563Z,99879.79
2019-04-04T14:26:08.224Z,99880.81
2019-04-04T14:28:36.484Z,99888.92
2019-04-04T14:31:08.141Z,99891.88
2019-04-04T14:33:37.927Z,99895.68
2019-04-04T14:36:06.324Z,99887.97
2019-04-04T14:38:34.716Z,99890.30
2019-04-04T14:41:11.030Z,99887.02
2019-04-04T14:43:32.966Z,99883.12
2019-04-04T14:46:02.899Z,99875.66
2019-04-04T14:48:31.204Z,99879.14
2019-04-04T14:50:59.650Z,99883.20
2019-04-04T14:53:27.910Z,99887.50
2019-04-04T14:55:56.194Z,99887.59
2019-04-04T14:58:25.365Z,99888.63
2019-04-04T15:00:53.650Z,99885.42
2019-04-04T15:03:22.714Z,99895.61
2019-04-04T15:05:51.065Z,99898.62
2019-04-04T15:08:19.364Z,99900.77
2019-04-04T15:10:47.677Z,99903.62
2019-04-04T15:13:16.052Z,99906.26
2019-04-04T15:16:12.573Z,99913.19
2019-04-04T15:18:42.737Z,99912.54
2019-04-04T15:21:11.061Z,99908.95
2019-04-04T15:23:39.332Z,99908.56
2019-04-04T15:26:09.787Z,99899.67
2019-04-04T15:28:37.640Z,99898.61
2019-04-04T15:31:06.367Z,99906.80
2019-04-04T15:33:34.649Z,99908.78
2019-04-04T15:36:03.035Z,99909.33
2019-04-04T15:38:31.351Z,99905.11
2019-04-04T15:40:59.706Z,99898.43
2019-04-04T15:43:27.971Z,99904.69
2019-04-04T15:45:56.253Z,99902.70
2019-04-04T15:48:24.578Z,99908.23
2019-04-04T15:50:52.871Z,99907.52
2019-04-04T15:53:21.153Z,99909.66
2019-04-04T15:55:49.458Z,99923.23
2019-04-04T15:58:17.747Z,99918.47
2019-04-04T16:00:46.151Z,99925.22
2019-04-04T16:03:17.789Z,99936.80
2019-04-04T16:05:46.762Z,99940.63
2019-04-04T16:08:15.071Z,99954.44
2019-04-04T16:10:43.352Z,99955.05
2019-04-04T16:13:11.658Z,99967.69
2019-04-04T16:15:39.953Z,99966.48
2019-04-04T16:18:08.295Z,99984.49
2019-04-04T16:20:36.579Z,99982.61
2019-04-04T16:23:04.858Z,99979.09
2019-04-04T16:25:33.171Z,99977.03
2019-04-04T16:28:02.027Z,99993.35
2019-04-04T16:30:30.330Z,99993.03
2019-04-04T16:32:58.675Z,99997.91
2019-04-04T16:35:27.008Z,99996.23
2019-04-04T16:37:55.289Z,99986.22
2019-04-04T16:40:23.577Z,99985.75
2019-04-04T16:42:51.884Z,99981.52
2019-04-04T16:45:20.172Z,99983.97
2019-04-04T16:47:48.956Z,99987.93
2019-04-04T16:50:17.240Z,99979.58
2019-04-04T16:52:45.562Z,99982.84
2019-04-04T16:55:13.839Z,99986.58
2019-04-04T16:57:43.540Z,99993.86
2019-04-04T17:00:12.806Z,99993.39
2019-04-04T17:02:41.211Z,99999.64
2019-04-04T17:05:11.051Z,99993.45
2019-04-04T17:07:39.718Z,100004.44
2019-04-04T17:10:08.268Z,100010.37
2019-04-04T17:12:37.254Z,99997.44
2019-04-04T17:15:07.254Z,99994.74
2019-04-04T17:17:35.622Z,100006.32
2019-04-04T17:20:06.654Z,100005.22
2019-04-04T17:22:35.035Z,100006.32
2019-04-04T17:25:03.383Z,100027.37
2019-04-04T17:27:31.668Z,100043.31
2019-04-04T17:30:00.286Z,100050.59
2019-04-04T17:32:29.518Z,100052.20
2019-04-04T17:34:58.079Z,100042.81
2019-04-04T17:37:27.107Z,100042.09
2019-04-04T17:39:55.767Z,100048.59
2019-04-04T17:42:30.221Z,100040.74
2019-04-04T17:44:54.877Z,100031.05
2019-04-04T17:47:23.878Z,100038.30
2019-04-04T17:49:52.509Z,100054.23
2019-04-04T17:52:21.002Z,100039.64
2019-04-04T17:54:49.957Z,100041.78
2019-04-04T17:57:21.321Z,100043.06
2019-04-04T17:59:49.701Z,100040.62
2019-04-04T18:02:18.349Z,100037.67
2019-04-04T18:04:48.474Z,100048.47
2019-04-04T18:07:16.678Z,100055.46
2019-04-04T18:09:45.922Z,100048.47
2019-04-04T18:12:16.792Z,100028.22
2019-04-04T18:14:44.451Z,100020.75
2019-04-04T18:17:12.927Z,100023.55
2019-04-04T18:19:41.572Z,100024.89
2019-04-04T18:22:10.141Z,100027.91
2019-04-04T18:24:38.440Z,100025.74
2019-04-04T18:27:07.154Z,100030.61
2019-04-04T18:29:35.468Z,100034.46
2019-04-04T18:32:03.866Z,100040.70
2019-04-04T18:34:32.686Z,100057.45
2019-04-04T18:37:01.472Z,100065.61
2019-04-04T18:39:29.787Z,100075.62
2019-04-04T18:41:58.073Z,100075.67
2019-04-04T18:44:26.429Z,100082.42
2019-04-04T18:46:54.713Z,100083.20
2019-04-04T18:49:23.080Z,100086.16
2019-04-04T18:51:51.409Z,100089.89
2019-04-04T18:54:19.691Z,100086.47
2019-04-04T18:56:48.012Z,100090.57
2019-04-04T18:59:16.325Z,100085.55
2019-04-04T19:01:45.134Z,100093.12
2019-04-04T19:04:13.442Z,100102.63
2019-04-04T19:06:42.148Z,100120.22
2019-04-04T19:09:15.045Z,100116.22
2019-04-04T19:11:42.164Z,100123.27
2019-04-04T19:14:10.590Z,100125.44
2019-04-04T19:16:38.875Z,100130.33
2019-04-04T19:19:07.235Z,100125.24
2019-04-04T19:21:35.637Z,100125.55
2019-04-04T19:24:03.995Z,100131.25
2019-04-04T19:26:32.465Z,100122.04
2019-04-04T19:29:03.021Z,100115.60
2019-04-04T19:31:31.305Z,100107.52
2019-04-04T19:33:59.596Z,100108.55
2019-04-04T19:36:27.914Z,100116.42
2019-04-04T19:38:56.229Z,100108.55
2019-04-04T19:41:24.541Z,100115.24
2019-04-04T19:43:52.831Z,100132.04
2019-04-04T19:46:21.290Z,100123.75
2019-04-04T19:48:49.579Z,100133.75
2019-04-04T19:51:17.878Z,100136.19
2019-04-04T19:53:46.187Z,100144.84
2019-04-04T19:56:14.718Z,100149.37
2019-04-04T19:58:43.004Z,100155.85
2019-04-04T20:01:11.292Z,100158.27
2019-04-04T20:03:39.801Z,100161.81
2019-04-04T20:06:08.081Z,100153.97
2019-04-04T20:08:36.361Z,100140.19
2019-04-04T20:11:04.679Z,100134.23
2019-04-04T20:13:33.043Z,100132.34
2019-04-04T20:16:01.508Z,100125.72
2019-04-04T20:18:29.791Z,100115.49
2019-04-04T20:20:58.441Z,100109.84
2019-04-04T20:23:26.724Z,100117.94
2019-04-04T20:25:55.075Z,100130.65
2019-04-04T20:28:23.366Z,100142.92
2019-04-04T20:30:51.651Z,100156.45
2019-04-04T20:33:20.724Z,100167.23
2019-04-04T20:35:49.042Z,100175.55
2019-04-04T20:38:17.388Z,100169.11
2019-04-04T20:40:45.724Z,100172.37
2019-04-04T20:43:14.016Z,100170.66
2019-04-04T20:45:42.382Z,100170.72
2019-04-04T20:48:10.851Z,100165.38
2019-04-04T20:50:39.149Z,100174.03
2019-04-04T20:53:07.435Z,100176.21
2019-04-04T20:55:35.765Z,100188.91
2019-04-04T20:58:04.044Z,100192.69
2019-04-04T21:00:32.426Z,100192.69
2019-04-04T21:03:00.991Z,100193.25
2019-04-04T21:05:29.363Z,100183.05
2019-04-04T21:07:57.664Z,100173.88
2019-04-04T21:10:25.955Z,100165.43
2019-04-04T21:12:54.271Z,100180.05
2019-04-04T21:15:22.602Z,100192.00
2019-04-04T21:17:50.908Z,100199.32
2019-04-04T21:20:19.963Z,100199.87
2019-04-04T21:22:48.369Z,100191.28
2019-04-04T21:25:16.680Z,100190.50
2019-04-04T21:27:44.993Z,100192.36
2019-04-04T21:30:13.304Z,100200.48
2019-04-04T21:32:41.583Z,100203.72
2019-04-04T21:35:09.878Z,100196.49
2019-04-04T21:37:38.192Z,100189.76
2019-04-04T21:40:06.478Z,100189.19
2019-04-04T21:42:35.465Z,100184.62
2019-04-04T21:45:05.491Z,100184.32
2019-04-04T21:47:33.776Z,100188.05
2019-04-04T21:50:02.093Z,100176.45
2019-04-04T21:52:30.574Z,100179.45
2019-04-04T21:54:58.866Z,100179.81
2019-04-04T21:57:27.727Z,100183.59
2019-04-04T21:59:56.043Z,100182.07
2019-04-04T22:02:24.325Z,100188.95
2019-04-04T22:04:52.750Z,100189.99
2019-04-04T22:07:21.038Z,100186.47
2019-04-04T22:09:49.568Z,100186.47
2019-04-04T22:12:17.922Z,100195.08
2019-04-04T22:14:46.305Z,100197.24
2019-04-04T22:17:14.587Z,100189.38
2019-04-04T22:19:42.949Z,100189.95
2019-04-04T22:22:11.256Z,100188.59
2019-04-04T22:24:39.589Z,100205.55
2019-04-04T22:27:07.877Z,100206.67
2019-04-04T22:29:36.189Z,100210.72
2019-04-04T22:32:04.472Z,100208.25
2019-04-04T22:34:33.450Z,100204.20
2019-04-04T22:37:01.794Z,100204.77
2019-04-04T22:39:30.078Z,100210.50
2019-04-04T22:41:58.371Z,100215.64
2019-04-04T22:44:34.541Z,100222.07
2019-04-04T22:46:56.693Z,100236.84
2019-04-04T22:49:25.081Z,100228.23
2019-04-04T22:51:53.374Z,100233.31
2019-04-04T22:54:21.687Z,100228.23
2019-04-04T22:56:49.964Z,100227.92
2019-04-04T22:59:18.283Z,100230.41
2019-04-04T23:01:46.574Z,100235.02
2019-04-04T23:04:16.945Z,100226.67
2019-04-04T23:06:45.323Z,100234.80
2019-04-04T23:09:13.642Z,100235.06
2019-04-04T23:11:42.016Z,100229.11
2019-04-04T23:14:10.318Z,100229.11
2019-04-04T23:16:38.609Z,100231.11
2019-04-04T23:19:06.920Z,100237.33
2019-04-04T23:21:35.216Z,100225.50
2019-04-04T23:24:03.592Z,100228.72
2019-04-04T23:26:31.874Z,100230.84
2019-04-04T23:29:00.831Z,100241.63
2019-04-04T23:31:29.140Z,100236.49
2019-04-04T23:33:57.434Z,100227.85
2019-04-04T23:36:34.975Z,100219.59
2019-04-04T23:38:55.853Z,100225.55
2019-04-04T23:41:24.146Z,100229.84
2019-04-04T23:43:52.430Z,100236.02
2019-04-04T23:46:21.012Z,100240.63
2019-04-04T23:48:49.299Z,100222.55
2019-04-04T23:51:17.679Z,100226.85
2019-04-04T23:53:45.974Z,100235.49
2019-04-04T23:56:14.286Z,100239.31
2019-04-04T23:58:42.603Z,100246.61
